createdAt,value
2022-10-03T00:00:41.692Z,9.30
2022-10-03T00:03:58.015Z,8.40
2022-10-03T00:06:56.699Z,8.70
2022-10-03T00:09:57.469Z,9.30
2022-10-03T00:13:05.115Z,8.50
2022-10-03T00:16:04.363Z,8.80
2022-10-03T00:19:01.466Z,9.10
2022-10-03T00:22:01.366Z,9.30
2022-10-03T00:25:02.237Z,9.50
2022-10-03T00:28:03.071Z,8.10
2022-10-03T00:31:11.311Z,9.10
2022-10-03T00:34:08.502Z,8.80
2022-10-03T00:37:13.904Z,9.20
2022-10-03T00:40:42.649Z,9.00
2022-10-03T00:44:04.551Z,8.40
2022-10-03T00:47:39.942Z,8.30
2022-10-03T00:50:48.047Z,8.60
2022-10-03T00:53:59.632Z,7.90
2022-10-03T00:57:06.028Z,8.60
2022-10-03T01:03:32.629Z,8.30
2022-10-03T01:06:30.745Z,8.00
2022-10-03T01:09:38.669Z,9.20
2022-10-03T01:12:46.901Z,8.40
2022-10-03T01:15:46.942Z,7.80
2022-10-03T01:18:45.225Z,7.60
2022-10-03T01:21:41.782Z,8.10
2022-10-03T01:24:52.181Z,8.20
2022-10-03T01:28:08.528Z,8.10
2022-10-03T01:31:02.074Z,7.70
2022-10-03T01:33:58.722Z,8.10
2022-10-03T01:37:00.659Z,8.50
2022-10-03T01:39:53.175Z,7.20
2022-10-03T01:42:57.576Z,7.60
2022-10-03T01:45:55.677Z,7.20
2022-10-03T01:48:53.087Z,7.60
2022-10-03T01:51:47.735Z,7.60
2022-10-03T01:54:44.400Z,7.80
2022-10-03T01:57:40.215Z,8.60
2022-10-03T02:00:35.805Z,9.00
2022-10-03T02:03:27.702Z,8.00
2022-10-03T02:06:24.631Z,7.20
2022-10-03T02:09:29.458Z,7.10
2022-10-03T02:12:29.787Z,9.20
2022-10-03T02:15:24.188Z,8.20
2022-10-03T02:18:18.126Z,7.80
2022-10-03T02:21:13.858Z,7.40
2022-10-03T02:27:54.348Z,7.20
2022-10-03T02:31:01.769Z,7.30
2022-10-03T02:34:13.157Z,7.00
2022-10-03T02:37:46.121Z,7.40
2022-10-03T02:41:11.301Z,7.90
2022-10-03T02:44:34.803Z,8.80
2022-10-03T02:48:19.887Z,7.20
2022-10-03T02:51:22.457Z,6.70
2022-10-03T02:54:41.381Z,7.00
2022-10-03T02:58:10.638Z,7.90
2022-10-03T03:01:25.170Z,6.60
2022-10-03T03:04:44.457Z,7.10
2022-10-03T03:07:45.118Z,6.30
2022-10-03T03:10:52.300Z,6.80
2022-10-03T03:14:15.116Z,7.20
2022-10-03T03:17:25.171Z,6.80
2022-10-03T03:20:43.689Z,7.20
2022-10-03T03:24:05.187Z,7.40
2022-10-03T03:27:21.453Z,6.60
2022-10-03T03:30:12.963Z,6.60
2022-10-03T03:33:12.520Z,5.90
2022-10-03T03:36:09.858Z,6.20
2022-10-03T03:39:09.105Z,6.60
2022-10-03T03:42:16.150Z,7.30
2022-10-03T03:45:40.497Z,5.90
2022-10-03T03:48:47.641Z,5.80
2022-10-03T03:51:45.521Z,5.30
2022-10-03T03:55:05.638Z,5.90
2022-10-03T03:58:24.228Z,6.10
2022-10-03T04:01:35.113Z,5.80
2022-10-03T04:04:42.641Z,5.90
2022-10-03T04:07:48.694Z,5.70
2022-10-03T04:10:49.892Z,5.90
2022-10-03T04:14:29.780Z,4.60
2022-10-03T04:17:53.140Z,6.60
2022-10-03T04:20:57.986Z,6.40
2022-10-03T04:24:13.221Z,6.20
2022-10-03T04:27:16.982Z,5.70
2022-10-03T04:30:14.249Z,6.00
2022-10-03T04:33:17.028Z,6.20
2022-10-03T04:37:07.844Z,5.80
2022-10-03T04:40:16.665Z,6.00
2022-10-03T04:43:13.297Z,5.20
2022-10-03T04:46:15.268Z,6.10
2022-10-03T04:49:12.875Z,5.60
2022-10-03T04:52:06.938Z,5.80
2022-10-03T04:55:06.161Z,6.00
2022-10-03T04:58:04.911Z,5.60
2022-10-03T05:01:05.819Z,6.00
2022-10-03T05:04:10.073Z,6.50
2022-10-03T05:07:10.058Z,6.00
2022-10-03T05:10:07.398Z,5.50
2022-10-03T05:13:08.065Z,7.10
2022-10-03T05:16:05.645Z,6.40
2022-10-03T05:19:03.850Z,7.10
2022-10-03T05:21:58.061Z,6.20
2022-10-03T05:24:53.436Z,6.70
2022-10-03T05:27:51.183Z,6.40
2022-10-03T05:30:52.848Z,5.60
2022-10-03T05:33:47.466Z,6.10
2022-10-03T05:36:52.678Z,5.70
2022-10-03T05:39:55.279Z,5.70
2022-10-03T05:43:03.682Z,6.20
2022-10-03T05:46:00.373Z,6.20
2022-10-03T05:48:52.137Z,6.10
2022-10-03T05:52:01.582Z,6.50
2022-10-03T05:55:10.026Z,6.40
2022-10-03T05:58:31.823Z,6.60
2022-10-03T06:01:59.970Z,7.50
2022-10-03T06:05:02.966Z,9.00
2022-10-03T06:08:13.936Z,6.40
2022-10-03T06:11:11.454Z,7.30
2022-10-03T06:14:19.167Z,6.20
2022-10-03T06:17:43.376Z,7.50
2022-10-03T06:21:19.042Z,6.80
2022-10-03T06:25:21.876Z,8.00
2022-10-03T06:28:58.293Z,6.10
2022-10-03T06:32:18.412Z,8.00
2022-10-03T06:36:00.825Z,5.30
2022-10-03T06:39:59.727Z,8.70
2022-10-03T06:43:10.969Z,8.90
2022-10-03T06:46:59.896Z,6.90
2022-10-03T06:50:13.241Z,7.00
2022-10-03T06:53:14.382Z,9.00
2022-10-03T06:56:26.325Z,9.50
2022-10-03T06:59:53.125Z,10.70
2022-10-03T07:03:21.516Z,10.50
2022-10-03T07:07:03.964Z,14.50
2022-10-03T07:10:12.826Z,10.30
2022-10-03T07:13:43.428Z,10.30
2022-10-03T07:17:18.050Z,9.90
2022-10-03T07:20:25.489Z,11.00
2022-10-03T07:23:48.478Z,8.40
2022-10-03T07:27:29.957Z,9.10
2022-10-03T07:30:21.178Z,8.50
2022-10-03T07:33:48.138Z,8.20
2022-10-03T07:37:16.596Z,11.00
2022-10-03T07:40:25.595Z,10.90
2022-10-03T07:43:47.297Z,9.70
2022-10-03T07:46:53.793Z,6.90
2022-10-03T07:50:19.327Z,8.00
2022-10-03T07:53:43.622Z,7.30
2022-10-03T07:57:05.076Z,7.80
2022-10-03T08:00:22.713Z,5.70
2022-10-03T08:04:10.262Z,6.60
2022-10-03T08:07:12.737Z,6.90
2022-10-03T08:10:16.574Z,7.80
2022-10-03T08:13:31.925Z,7.30
2022-10-03T08:16:46.889Z,8.30
2022-10-03T08:20:08.488Z,5.20
2022-10-03T08:23:12.753Z,6.70
2022-10-03T08:26:14.670Z,6.10
2022-10-03T08:29:28.237Z,7.00
2022-10-03T08:33:14.035Z,8.50
2022-10-03T08:36:42.060Z,8.50
2022-10-03T08:39:55.689Z,8.90
2022-10-03T08:43:09.561Z,8.90
2022-10-03T08:46:30.147Z,10.00
2022-10-03T08:50:02.978Z,8.50
2022-10-03T08:53:49.532Z,7.30
2022-10-03T08:57:05.698Z,7.10
2022-10-03T09:00:21.310Z,9.10
2022-10-03T09:04:06.956Z,7.00
2022-10-03T09:07:23.269Z,8.10
2022-10-03T09:10:37.305Z,7.30
2022-10-03T09:13:50.280Z,7.30
2022-10-03T09:16:52.130Z,7.30
2022-10-03T09:20:22.117Z,6.80
2022-10-03T09:23:52.266Z,8.00
2022-10-03T09:27:33.927Z,7.10
2022-10-03T09:30:32.214Z,6.40
2022-10-03T09:34:09.369Z,7.30
2022-10-03T09:37:41.966Z,6.40
2022-10-03T09:41:19.528Z,6.60
2022-10-03T09:44:40.062Z,7.00
2022-10-03T09:48:32.245Z,8.30
2022-10-03T09:51:35.764Z,6.30
2022-10-03T09:54:47.086Z,5.90
2022-10-03T09:57:54.100Z,5.40
2022-10-03T10:01:03.906Z,6.00
2022-10-03T10:04:54.849Z,6.50
2022-10-03T10:08:33.295Z,6.30
2022-10-03T10:15:00.046Z,6.70
2022-10-03T10:18:35.433Z,6.90
2022-10-03T10:22:13.848Z,6.80
2022-10-03T10:25:30.898Z,6.00
2022-10-03T10:29:06.796Z,6.60
2022-10-03T10:33:05.192Z,6.00
2022-10-03T10:37:05.576Z,5.90
2022-10-03T10:40:28.807Z,6.50
2022-10-03T10:44:08.650Z,6.20
2022-10-03T10:47:30.918Z,5.80
2022-10-03T10:51:07.286Z,5.90
2022-10-03T10:54:51.982Z,6.30
2022-10-03T10:58:32.048Z,6.30
2022-10-03T11:01:48.250Z,6.50
2022-10-03T11:05:32.116Z,7.40
2022-10-03T11:09:14.456Z,7.20
2022-10-03T11:12:43.582Z,6.10
2022-10-03T11:16:25.452Z,9.10
2022-10-03T11:19:52.330Z,10.50
2022-10-03T11:23:41.546Z,6.40
2022-10-03T11:27:21.454Z,6.10
2022-10-03T11:30:44.877Z,7.80
2022-10-03T11:34:26.843Z,5.70
2022-10-03T11:37:32.110Z,8.50
2022-10-03T11:40:32.465Z,7.10
2022-10-03T11:44:06.693Z,6.70
2022-10-03T11:47:15.708Z,6.90
2022-10-03T11:50:42.825Z,6.90
2022-10-03T11:53:47.437Z,9.00
2022-10-03T11:56:39.521Z,6.60
2022-10-03T11:59:39.683Z,7.80
2022-10-03T12:03:01.404Z,8.40
2022-10-03T12:06:17.680Z,6.60
2022-10-03T12:09:15.613Z,6.50
2022-10-03T12:12:11.307Z,7.80
2022-10-03T12:15:06.492Z,6.50
2022-10-03T12:18:06.189Z,8.90
2022-10-03T12:21:10.074Z,7.00
2022-10-03T12:24:17.917Z,7.60
2022-10-03T12:27:15.181Z,7.10
2022-10-03T12:30:13.352Z,7.30
2022-10-03T12:33:28.755Z,6.60
2022-10-03T12:36:20.176Z,6.20
2022-10-03T12:39:23.903Z,8.30
2022-10-03T12:42:26.598Z,6.90
2022-10-03T12:45:26.405Z,6.90
2022-10-03T12:48:39.541Z,8.30
2022-10-03T12:51:47.560Z,9.20
2022-10-03T12:54:47.818Z,8.20
2022-10-03T12:57:51.479Z,9.50
2022-10-03T13:00:48.576Z,8.90
2022-10-03T13:03:43.920Z,8.50
2022-10-03T13:07:05.983Z,6.30
2022-10-03T13:10:06.342Z,7.80
2022-10-03T13:13:05.493Z,6.90
2022-10-03T13:16:25.683Z,5.90
2022-10-03T13:19:17.898Z,7.20
2022-10-03T13:22:23.406Z,7.30
2022-10-03T13:25:18.577Z,9.20
2022-10-03T13:28:14.912Z,8.80
2022-10-03T13:31:08.024Z,8.70
2022-10-03T13:34:01.547Z,8.40
2022-10-03T13:36:55.221Z,8.50
2022-10-03T13:39:48.224Z,6.60
2022-10-03T13:42:44.697Z,8.30
2022-10-03T13:45:35.074Z,7.10
2022-10-03T13:48:27.520Z,7.60
2022-10-03T13:51:26.618Z,6.20
2022-10-03T13:54:20.852Z,8.90
2022-10-03T13:57:15.429Z,6.70
2022-10-03T14:00:10.666Z,8.00
2022-10-03T14:03:13.240Z,7.70
2022-10-03T14:06:19.669Z,7.60
2022-10-03T14:12:38.296Z,7.70
2022-10-03T14:15:43.394Z,6.90
2022-10-03T14:18:50.466Z,7.40
2022-10-03T14:21:51.240Z,8.20
2022-10-03T14:25:15.029Z,7.90
2022-10-03T14:28:13.181Z,6.40
2022-10-03T14:31:08.695Z,6.60
2022-10-03T14:34:02.807Z,6.50
2022-10-03T14:36:56.062Z,6.10
2022-10-03T14:39:58.483Z,6.00
2022-10-03T14:43:01.179Z,7.50
2022-10-03T14:45:52.825Z,6.10
2022-10-03T14:48:45.252Z,7.20
2022-10-03T14:51:38.176Z,6.80
2022-10-03T14:54:29.074Z,5.60
2022-10-03T14:57:37.037Z,6.20
2022-10-03T15:00:38.687Z,6.00
2022-10-03T15:03:37.620Z,6.80
2022-10-03T15:06:53.168Z,6.70
2022-10-03T15:09:48.485Z,5.20
2022-10-03T15:12:39.475Z,6.60
2022-10-03T15:15:30.702Z,6.70
2022-10-03T15:18:23.252Z,7.70
2022-10-03T15:21:15.096Z,7.00
2022-10-03T15:24:06.473Z,6.70
2022-10-03T15:27:06.229Z,6.00
2022-10-03T15:29:59.388Z,5.70
2022-10-03T15:32:49.657Z,6.50
2022-10-03T15:35:41.468Z,6.90
2022-10-03T15:38:40.828Z,6.70
2022-10-03T15:41:37.329Z,7.30
2022-10-03T15:44:33.122Z,6.40
2022-10-03T15:47:26.204Z,7.90
2022-10-03T15:50:21.373Z,6.70
2022-10-03T15:53:35.698Z,6.60
2022-10-03T15:56:31.502Z,7.10
2022-10-03T15:59:27.386Z,8.70
2022-10-03T16:02:20.640Z,8.00
2022-10-03T16:05:18.948Z,6.70
2022-10-03T16:08:12.150Z,7.10
2022-10-03T16:11:08.812Z,7.30
2022-10-03T16:14:18.206Z,7.70
2022-10-03T16:17:14.350Z,7.30
2022-10-03T16:20:14.768Z,7.10
2022-10-03T16:23:14.166Z,7.30
2022-10-03T16:26:06.993Z,7.60
2022-10-03T16:29:07.110Z,7.60
2022-10-03T16:32:00.733Z,7.50
2022-10-03T16:34:51.016Z,7.70
2022-10-03T16:37:41.322Z,7.20
2022-10-03T16:40:31.492Z,10.70
2022-10-03T16:43:21.714Z,8.00
2022-10-03T16:46:18.282Z,7.60
2022-10-03T16:49:48.910Z,7.80
2022-10-03T16:52:40.227Z,8.00
2022-10-03T16:55:33.151Z,7.80
2022-10-03T16:58:26.197Z,6.90
2022-10-03T17:01:28.553Z,7.60
2022-10-03T17:04:23.403Z,7.30
2022-10-03T17:07:16.980Z,7.10
2022-10-03T17:10:20.647Z,7.30
2022-10-03T17:13:15.889Z,7.80
2022-10-03T17:16:13.535Z,8.10
2022-10-03T17:19:17.300Z,7.30
2022-10-03T17:22:15.506Z,7.80
2022-10-03T17:25:08.021Z,7.90
2022-10-03T17:27:58.338Z,7.60
2022-10-03T17:30:51.140Z,6.80
2022-10-03T17:33:45.189Z,8.00
2022-10-03T17:36:54.033Z,8.50
2022-10-03T17:39:56.894Z,8.50
2022-10-03T17:42:49.322Z,7.90
2022-10-03T17:45:43.519Z,8.40
2022-10-03T17:48:39.414Z,7.80
2022-10-03T17:51:36.352Z,8.40
2022-10-03T17:54:28.668Z,8.90
2022-10-03T17:57:23.944Z,7.30
2022-10-03T18:00:20.433Z,8.30
2022-10-03T18:03:13.388Z,9.30
2022-10-03T18:06:54.470Z,9.10
2022-10-03T18:09:47.976Z,8.10
2022-10-03T18:12:39.823Z,8.20
2022-10-03T18:15:40.899Z,8.40
2022-10-03T18:19:05.398Z,8.00
2022-10-03T18:22:01.807Z,9.20
2022-10-03T18:25:00.946Z,8.40
2022-10-03T18:28:12.535Z,8.40
2022-10-03T18:31:09.053Z,8.90
2022-10-03T18:34:01.274Z,7.90
2022-10-03T18:36:53.373Z,7.90
2022-10-03T18:39:43.969Z,8.70
2022-10-03T18:42:35.489Z,8.50
2022-10-03T18:45:31.765Z,8.00
2022-10-03T18:48:29.367Z,7.90
2022-10-03T18:51:25.313Z,7.80
2022-10-03T18:57:19.257Z,7.90
2022-10-03T19:00:17.971Z,7.60
2022-10-03T19:03:14.806Z,8.70
2022-10-03T19:06:09.378Z,8.00
2022-10-03T19:09:06.018Z,7.70
2022-10-03T19:12:01.577Z,7.80
2022-10-03T19:15:05.330Z,7.60
2022-10-03T19:18:08.740Z,8.00
2022-10-03T19:21:04.187Z,8.30
2022-10-03T19:24:04.793Z,8.30
2022-10-03T19:26:58.903Z,8.30
2022-10-03T19:29:50.961Z,7.40
2022-10-03T19:32:51.541Z,8.10
2022-10-03T19:35:47.808Z,7.90
2022-10-03T19:38:40.485Z,7.50
2022-10-03T19:41:33.935Z,8.60
2022-10-03T19:44:25.566Z,7.20
2022-10-03T19:47:17.340Z,8.00
2022-10-03T19:50:13.666Z,7.50
2022-10-03T19:53:10.094Z,7.90
2022-10-03T19:56:00.738Z,8.10
2022-10-03T19:59:02.741Z,7.30
2022-10-03T20:01:52.876Z,8.40
2022-10-03T20:04:43.031Z,9.60
2022-10-03T20:07:46.089Z,10.60
2022-10-03T20:10:54.794Z,10.20
2022-10-03T20:13:47.415Z,10.40
2022-10-03T20:16:46.129Z,9.50
2022-10-03T20:19:53.957Z,10.10
2022-10-03T20:22:44.579Z,10.30
2022-10-03T20:25:37.738Z,9.10
2022-10-03T20:28:41.012Z,9.30
2022-10-03T20:31:31.170Z,8.50
2022-10-03T20:34:24.084Z,8.20
2022-10-03T20:37:36.807Z,8.20
2022-10-03T20:40:34.616Z,10.00
2022-10-03T20:43:42.445Z,8.80
2022-10-03T20:46:36.998Z,8.80
2022-10-03T20:49:31.056Z,9.20
2022-10-03T20:52:22.009Z,8.30
2022-10-03T20:55:21.114Z,8.50
2022-10-03T20:58:25.266Z,9.10
2022-10-03T21:01:18.269Z,9.20
2022-10-03T21:04:16.543Z,9.70
2022-10-03T21:07:14.870Z,9.70
2022-10-03T21:10:16.177Z,10.20
2022-10-03T21:13:09.114Z,9.40
2022-10-03T21:15:59.599Z,10.70
2022-10-03T21:18:52.424Z,8.80
2022-10-03T21:21:47.196Z,9.80
2022-10-03T21:24:45.141Z,9.00
2022-10-03T21:27:35.623Z,9.90
2022-10-03T21:30:46.914Z,11.00
2022-10-03T21:33:44.535Z,9.40
2022-10-03T21:36:45.844Z,9.70
2022-10-03T21:39:44.177Z,11.80
2022-10-03T21:42:37.177Z,10.30
2022-10-03T21:45:31.637Z,10.40
2022-10-03T21:48:29.138Z,10.00
2022-10-03T21:51:27.221Z,9.90
2022-10-03T21:54:29.534Z,11.50
2022-10-03T21:57:22.837Z,10.60
2022-10-03T22:00:14.837Z,10.20
2022-10-03T22:03:11.474Z,9.40
2022-10-03T22:06:06.257Z,9.20
2022-10-03T22:09:00.345Z,10.90
2022-10-03T22:11:54.304Z,10.60
2022-10-03T22:14:48.378Z,9.40
2022-10-03T22:17:42.342Z,9.90
2022-10-03T22:20:33.906Z,9.50
2022-10-03T22:23:32.251Z,9.50
2022-10-03T22:26:26.115Z,9.70
2022-10-03T22:29:22.946Z,9.90
2022-10-03T22:32:18.394Z,10.20
2022-10-03T22:35:21.762Z,10.50
2022-10-03T22:38:11.951Z,9.60
2022-10-03T22:41:04.641Z,10.00
2022-10-03T22:43:55.268Z,9.30
2022-10-03T22:46:47.869Z,9.50
2022-10-03T22:49:40.289Z,9.00
2022-10-03T22:52:33.254Z,9.70
2022-10-03T22:55:24.164Z,9.50
2022-10-03T22:58:14.186Z,9.20
2022-10-03T23:01:05.664Z,8.80
2022-10-03T23:03:55.822Z,9.80
2022-10-03T23:07:13.554Z,8.60
2022-10-03T23:10:15.570Z,8.90
2022-10-03T23:13:07.247Z,9.20
2022-10-03T23:16:01.938Z,10.10
2022-10-03T23:19:15.122Z,8.90
2022-10-03T23:22:05.194Z,9.60
2022-10-03T23:24:56.772Z,8.50
2022-10-03T23:28:13.005Z,10.20
2022-10-03T23:31:03.115Z,8.60
2022-10-03T23:33:53.711Z,9.20
2022-10-03T23:37:00.701Z,8.60
2022-10-03T23:40:42.580Z,8.80
2022-10-03T23:43:37.556Z,8.10
2022-10-03T23:46:29.659Z,8.30
2022-10-03T23:49:19.929Z,8.70
2022-10-03T23:52:16.417Z,8.80
2022-10-03T23:55:09.361Z,8.30
2022-10-03T23:57:59.444Z,7.80
